createdAt,value
2019-02-06T00:01:23.558Z,67.10
2019-02-06T00:11:19.889Z,50.33
2019-02-06T00:16:15.537Z,46.90
2019-02-06T00:21:11.576Z,51.27
2019-02-06T00:26:07.401Z,50.83
2019-02-06T00:31:03.232Z,47.70
2019-02-06T00:35:58.960Z,48.30
2019-02-06T00:40:54.690Z,44.30
2019-02-06T00:45:52.144Z,44.13
2019-02-06T00:50:47.917Z,45.83
2019-02-06T00:55:43.636Z,45.23
2019-02-06T01:00:39.594Z,46.53
2019-02-06T01:05:38.418Z,43.27
2019-02-06T01:10:33.083Z,44.60
2019-02-06T01:15:28.873Z,45.63
2019-02-06T01:20:24.778Z,44.07
2019-02-06T01:25:20.390Z,41.60
2019-02-06T01:30:19.643Z,49.07
2019-02-06T01:35:15.499Z,36.30
2019-02-06T01:40:12.942Z,33.50
2019-02-06T01:45:10.674Z,31.67
2019-02-06T01:50:10.056Z,31.57
2019-02-06T01:55:06.403Z,29.40
2019-02-06T02:00:02.081Z,29.60
2019-02-06T02:04:58.873Z,30.87
2019-02-06T02:15:10.772Z,31.57
2019-02-06T02:20:09.095Z,30.80
2019-02-06T02:25:05.421Z,37.47
2019-02-06T02:30:01.182Z,29.43
2019-02-06T02:34:57.886Z,33.20
2019-02-06T02:39:53.958Z,28.33
2019-02-06T02:44:49.795Z,28.83
2019-02-06T02:49:45.575Z,28.03
2019-02-06T02:54:41.284Z,29.90
2019-02-06T02:59:37.093Z,25.57
2019-02-06T03:04:51.726Z,23.13
2019-02-06T03:09:47.821Z,25.40
2019-02-06T03:14:43.521Z,23.70
2019-02-06T03:19:39.166Z,25.60
2019-02-06T03:24:34.875Z,30.33
2019-02-06T03:29:30.609Z,28.47
2019-02-06T03:34:26.233Z,28.97
2019-02-06T03:39:23.085Z,28.87
2019-02-06T03:44:18.971Z,27.43
2019-02-06T03:49:14.670Z,28.03
2019-02-06T03:54:08.596Z,25.13
2019-02-06T03:59:04.412Z,23.53
2019-02-06T04:04:03.065Z,65.43
2019-02-06T04:08:58.769Z,21.23
2019-02-06T04:13:54.355Z,21.70
2019-02-06T04:18:50.349Z,18.73
2019-02-06T04:23:46.046Z,17.13
2019-02-06T04:28:42.235Z,17.70
2019-02-06T04:33:38.954Z,19.20
2019-02-06T04:38:36.078Z,21.50
2019-02-06T04:43:31.785Z,22.07
2019-02-06T04:48:28.419Z,26.03
2019-02-06T04:53:24.073Z,21.23
2019-02-06T04:58:19.773Z,17.67
2019-02-06T05:03:16.384Z,21.80
2019-02-06T05:08:12.002Z,21.63
2019-02-06T05:13:07.737Z,21.53
2019-02-06T05:18:03.544Z,23.17
2019-02-06T05:22:59.241Z,18.17
2019-02-06T05:27:55.085Z,22.43
2019-02-06T05:32:50.775Z,20.57
2019-02-06T05:37:46.632Z,22.57
2019-02-06T05:42:42.319Z,14.77
2019-02-06T05:47:38.060Z,18.93
2019-02-06T05:52:33.789Z,19.50
2019-02-06T05:57:29.476Z,17.97
2019-02-06T06:02:25.154Z,20.43
2019-02-06T06:07:20.825Z,19.43
2019-02-06T06:12:18.721Z,18.07
2019-02-06T06:17:14.359Z,22.97
2019-02-06T06:22:10.298Z,18.53
2019-02-06T06:27:06.101Z,19.87
2019-02-06T06:32:01.737Z,18.87
2019-02-06T06:36:57.523Z,20.23
2019-02-06T06:41:53.168Z,25.60
2019-02-06T06:46:48.929Z,24.30
2019-02-06T06:51:44.858Z,18.97
2019-02-06T06:56:40.870Z,33.27
2019-02-06T07:01:36.534Z,26.63
2019-02-06T07:06:33.721Z,22.27
2019-02-06T07:11:29.409Z,24.13
2019-02-06T07:16:25.136Z,26.60
2019-02-06T07:21:20.761Z,26.63
2019-02-06T07:26:16.455Z,25.70
2019-02-06T07:31:13.497Z,20.87
2019-02-06T07:36:09.316Z,24.77
2019-02-06T07:41:04.912Z,33.73
2019-02-06T07:46:00.609Z,34.93
2019-02-06T07:50:56.305Z,28.60
2019-02-06T07:55:52.028Z,32.53
2019-02-06T08:00:47.693Z,35.20
2019-02-06T08:05:43.940Z,42.73
2019-02-06T08:10:39.607Z,36.40
2019-02-06T08:15:35.367Z,31.13
2019-02-06T08:20:31.132Z,21.93
2019-02-06T08:25:26.946Z,21.73
2019-02-06T08:30:27.657Z,29.20
2019-02-06T08:35:23.567Z,32.20
2019-02-06T08:40:20.176Z,49.33
2019-02-06T08:45:16.053Z,24.47
2019-02-06T08:50:12.662Z,29.70
2019-02-06T08:55:10.829Z,18.70
2019-02-06T09:00:07.960Z,31.43
2019-02-06T09:05:03.854Z,34.30
2019-02-06T09:09:59.504Z,23.00
2019-02-06T09:14:55.561Z,54.17
2019-02-06T09:19:51.295Z,30.30
2019-02-06T09:24:47.012Z,14.10
2019-02-06T09:29:42.644Z,15.03
2019-02-06T09:34:38.337Z,16.87
2019-02-06T09:39:33.968Z,11.43
2019-02-06T09:44:29.608Z,14.37
2019-02-06T09:49:26.837Z,11.57
2019-02-06T09:54:22.654Z,17.70
2019-02-06T09:59:18.390Z,16.57
2019-02-06T10:04:14.074Z,9.53
2019-02-06T10:09:10.038Z,9.20
2019-02-06T10:14:05.892Z,8.17
2019-02-06T10:19:01.640Z,8.23
2019-02-06T10:23:57.711Z,13.30
2019-02-06T10:28:54.490Z,13.43
2019-02-06T10:33:50.218Z,8.50
2019-02-06T10:38:46.404Z,9.50
2019-02-06T10:43:42.245Z,8.13
2019-02-06T10:48:38.052Z,10.83
2019-02-06T10:53:33.767Z,8.97
2019-02-06T10:58:29.865Z,10.77
2019-02-06T11:03:23.718Z,12.70
2019-02-06T11:08:19.525Z,8.03
2019-02-06T11:13:15.304Z,9.37
2019-02-06T11:18:10.981Z,10.13
2019-02-06T11:23:09.957Z,10.27
2019-02-06T11:28:08.665Z,10.37
2019-02-06T11:33:10.310Z,12.93
2019-02-06T11:38:07.212Z,10.37
2019-02-06T11:43:03.025Z,9.27
2019-02-06T11:48:00.270Z,8.03
2019-02-06T11:52:56.301Z,9.37
2019-02-06T11:57:52.190Z,8.70
2019-02-06T12:02:47.818Z,9.70
2019-02-06T12:07:43.509Z,9.87
2019-02-06T12:12:39.253Z,7.70
2019-02-06T12:17:35.044Z,8.33
2019-02-06T12:22:31.178Z,7.97
2019-02-06T12:27:26.992Z,9.43
2019-02-06T12:32:23.331Z,8.27
2019-02-06T12:37:19.161Z,9.10
2019-02-06T12:42:15.062Z,7.57
2019-02-06T12:47:10.800Z,9.50
2019-02-06T12:52:06.628Z,9.97
2019-02-06T12:57:02.233Z,9.33
2019-02-06T13:01:57.849Z,8.53
2019-02-06T13:06:54.779Z,7.97
2019-02-06T13:11:50.932Z,7.77
2019-02-06T13:16:46.719Z,8.93
2019-02-06T13:21:42.580Z,8.63
2019-02-06T13:26:40.189Z,8.30
2019-02-06T13:31:35.877Z,8.80
2019-02-06T13:36:31.544Z,9.57
2019-02-06T13:41:27.232Z,8.17
2019-02-06T13:46:22.993Z,8.33
2019-02-06T13:51:19.690Z,11.67
2019-02-06T13:56:15.741Z,9.07
2019-02-06T14:01:11.600Z,8.57
2019-02-06T14:06:07.558Z,9.07
2019-02-06T14:11:04.500Z,9.00
2019-02-06T14:16:00.584Z,10.63
2019-02-06T14:20:56.721Z,8.87
2019-02-06T14:26:21.797Z,11.23
2019-02-06T14:32:06.827Z,9.63
2019-02-06T14:37:55.629Z,10.73
2019-02-06T14:43:32.002Z,9.90
2019-02-06T14:49:07.251Z,9.93
2019-02-06T14:54:18.703Z,11.30
2019-02-06T14:59:31.290Z,12.47
2019-02-06T15:04:55.890Z,12.00
2019-02-06T15:10:38.276Z,13.13
2019-02-06T15:16:20.753Z,13.23
2019-02-06T15:21:57.680Z,11.30
2019-02-06T15:27:13.203Z,14.47
2019-02-06T15:32:07.298Z,19.27
2019-02-06T15:37:38.353Z,15.30
2019-02-06T15:43:03.795Z,15.20
2019-02-06T15:48:35.323Z,17.50
2019-02-06T15:54:04.352Z,20.37
2019-02-06T15:59:28.280Z,17.33
2019-02-06T16:05:25.937Z,27.90
2019-02-06T16:11:00.064Z,15.47
2019-02-06T16:16:36.149Z,19.17
2019-02-06T16:21:53.088Z,23.40
2019-02-06T16:27:11.220Z,26.77
2019-02-06T16:33:03.217Z,29.77
2019-02-06T16:38:38.565Z,28.77
2019-02-06T16:44:14.310Z,33.23
2019-02-06T16:49:29.558Z,25.50
2019-02-06T16:55:07.735Z,24.13
2019-02-06T17:00:43.197Z,35.67
2019-02-06T17:06:04.849Z,20.50
2019-02-06T17:11:34.950Z,21.87
2019-02-06T17:17:06.652Z,28.93
2019-02-06T17:22:42.006Z,26.53
2019-02-06T17:27:56.085Z,20.37
2019-02-06T17:33:33.364Z,30.43
2019-02-06T17:39:06.977Z,43.33
2019-02-06T17:44:42.620Z,34.43
2019-02-06T17:50:10.747Z,27.27
2019-02-06T17:55:19.430Z,35.90
2019-02-06T18:00:24.891Z,49.87
2019-02-06T18:05:20.896Z,57.20
2019-02-06T18:10:18.025Z,36.87
2019-02-06T18:15:14.137Z,35.70
2019-02-06T18:20:12.324Z,36.30
2019-02-06T18:25:26.985Z,32.03
2019-02-06T18:30:22.991Z,44.07
2019-02-06T18:35:19.475Z,41.13
2019-02-06T18:40:18.530Z,40.33
2019-02-06T18:45:16.159Z,44.63
2019-02-06T18:50:20.884Z,38.77
2019-02-06T18:55:16.868Z,34.30
2019-02-06T19:00:19.993Z,37.73
2019-02-06T19:05:16.604Z,43.83
2019-02-06T19:10:17.075Z,34.57
2019-02-06T19:15:18.146Z,42.83
2019-02-06T19:20:15.634Z,42.97
2019-02-06T19:25:11.849Z,46.07
2019-02-06T19:30:17.905Z,48.60
2019-02-06T19:35:13.871Z,48.90
2019-02-06T19:40:10.459Z,47.33
2019-02-06T19:45:07.240Z,41.47
2019-02-06T19:50:03.010Z,38.77
2019-02-06T19:55:00.504Z,44.17
2019-02-06T19:59:57.606Z,37.57
2019-02-06T20:04:54.376Z,31.20
2019-02-06T20:09:50.891Z,32.13
2019-02-06T20:14:47.478Z,34.37
2019-02-06T20:19:43.461Z,36.43
2019-02-06T20:24:42.534Z,46.40
2019-02-06T20:29:38.433Z,49.10
2019-02-06T20:34:41.166Z,42.97
2019-02-06T20:39:37.217Z,37.13
2019-02-06T20:44:34.485Z,43.07
2019-02-06T20:49:30.427Z,35.43
2019-02-06T20:54:26.772Z,35.50
2019-02-06T20:59:22.701Z,30.50
2019-02-06T21:04:20.057Z,35.73
2019-02-06T21:09:19.018Z,41.77
2019-02-06T21:14:17.283Z,38.30
2019-02-06T21:19:14.572Z,42.37
2019-02-06T21:24:10.661Z,42.60
2019-02-06T21:29:06.757Z,35.73
2019-02-06T21:34:02.789Z,34.50
2019-02-06T21:38:59.137Z,34.97
2019-02-06T21:43:55.602Z,33.23
2019-02-06T21:48:51.480Z,31.10
2019-02-06T21:53:47.272Z,34.03
2019-02-06T21:58:44.906Z,37.67
2019-02-06T22:03:40.762Z,37.27
2019-02-06T22:08:36.563Z,32.37
2019-02-06T22:13:34.339Z,29.33
2019-02-06T22:18:30.097Z,29.33
2019-02-06T22:23:25.825Z,34.50
2019-02-06T22:28:21.609Z,36.63
2019-02-06T22:33:17.719Z,37.87
2019-02-06T22:38:13.615Z,28.90
2019-02-06T22:43:09.383Z,27.67
2019-02-06T22:48:05.518Z,31.40
2019-02-06T22:53:01.342Z,34.73
2019-02-06T22:57:57.112Z,36.13
2019-02-06T23:02:53.224Z,32.73
2019-02-06T23:07:48.969Z,30.80
2019-02-06T23:12:44.705Z,36.80
2019-02-06T23:17:40.716Z,36.07
2019-02-06T23:22:37.765Z,35.57
2019-02-06T23:27:33.591Z,33.20
2019-02-06T23:32:32.014Z,33.30
2019-02-06T23:37:28.108Z,30.17
2019-02-06T23:42:24.016Z,31.67
2019-02-06T23:47:19.744Z,28.97
2019-02-06T23:52:15.798Z,32.83
2019-02-06T23:57:14.876Z,27.07
